sensor_id;sensor_type;location;lat;lon;timestamp;P1;durP1;ratioP1;P2;durP2;ratioP2
37781;SDS011;23621;50.878;4.584;2022-10-31T00:00:17;11.98;;;9.20;;
37781;SDS011;23621;50.878;4.584;2022-10-31T00:02:46;12.90;;;9.50;;
37781;SDS011;23621;50.878;4.584;2022-10-31T00:05:13;13.63;;;10.00;;
37781;SDS011;23621;50.878;4.584;2022-10-31T00:07:40;12.05;;;9.45;;
37781;SDS011;23621;50.878;4.584;2022-10-31T00:10:07;13.68;;;9.50;;
37781;SDS011;23621;50.878;4.584;2022-10-31T00:12:34;12.20;;;9.95;;
37781;SDS011;23621;50.878;4.584;2022-10-31T00:15:01;14.80;;;10.07;;
37781;SDS011;23621;50.878;4.584;2022-10-31T00:17:28;10.43;;;9.27;;
37781;SDS011;23621;50.878;4.584;2022-10-31T00:19:55;12.70;;;9.27;;
37781;SDS011;23621;50.878;4.584;2022-10-31T00:22:23;13.27;;;9.52;;
37781;SDS011;23621;50.878;4.584;2022-10-31T00:24:49;14.25;;;9.38;;
37781;SDS011;23621;50.878;4.584;2022-10-31T00:27:16;15.13;;;9.98;;
37781;SDS011;23621;50.878;4.584;2022-10-31T00:29:43;12.27;;;9.77;;
37781;SDS011;23621;50.878;4.584;2022-10-31T00:32:10;12.93;;;9.75;;
37781;SDS011;23621;50.878;4.584;2022-10-31T00:34:37;14.18;;;8.75;;
37781;SDS011;23621;50.878;4.584;2022-10-31T00:37:03;11.32;;;9.02;;
37781;SDS011;23621;50.878;4.584;2022-10-31T00:39:30;14.73;;;9.88;;
37781;SDS011;23621;50.878;4.584;2022-10-31T00:41:57;10.43;;;8.80;;
37781;SDS011;23621;50.878;4.584;2022-10-31T00:44:24;11.68;;;9.13;;
37781;SDS011;23621;50.878;4.584;2022-10-31T00:46:51;12.27;;;9.60;;
37781;SDS011;23621;50.878;4.584;2022-10-31T00:49:17;11.60;;;9.27;;
37781;SDS011;23621;50.878;4.584;2022-10-31T00:51:44;12.55;;;9.48;;
37781;SDS011;23621;50.878;4.584;2022-10-31T00:54:11;10.85;;;9.20;;
37781;SDS011;23621;50.878;4.584;2022-10-31T00:56:38;14.70;;;9.88;;
37781;SDS011;23621;50.878;4.584;2022-10-31T00:59:05;12.73;;;9.10;;
37781;SDS011;23621;50.878;4.584;2022-10-31T01:01:31;11.38;;;9.50;;
37781;SDS011;23621;50.878;4.584;2022-10-31T01:03:58;13.05;;;9.43;;
37781;SDS011;23621;50.878;4.584;2022-10-31T01:06:25;10.88;;;9.38;;
37781;SDS011;23621;50.878;4.584;2022-10-31T01:08:52;14.20;;;9.15;;
37781;SDS011;23621;50.878;4.584;2022-10-31T01:11:20;10.30;;;8.90;;
37781;SDS011;23621;50.878;4.584;2022-10-31T01:13:49;14.32;;;9.63;;
37781;SDS011;23621;50.878;4.584;2022-10-31T01:16:18;12.13;;;9.02;;
37781;SDS011;23621;50.878;4.584;2022-10-31T01:18:47;14.32;;;9.52;;
37781;SDS011;23621;50.878;4.584;2022-10-31T01:21:16;10.93;;;8.57;;
37781;SDS011;23621;50.878;4.584;2022-10-31T01:23:44;10.68;;;8.27;;
37781;SDS011;23621;50.878;4.584;2022-10-31T01:26:21;9.50;;;8.32;;
37781;SDS011;23621;50.878;4.584;2022-10-31T01:28:55;11.68;;;8.70;;
37781;SDS011;23621;50.878;4.584;2022-10-31T01:31:28;11.43;;;8.77;;
37781;SDS011;23621;50.878;4.584;2022-10-31T01:33:56;12.07;;;8.95;;
37781;SDS011;23621;50.878;4.584;2022-10-31T01:36:25;12.52;;;8.60;;
37781;SDS011;23621;50.878;4.584;2022-10-31T01:38:55;9.25;;;8.13;;
37781;SDS011;23621;50.878;4.584;2022-10-31T01:41:25;9.98;;;8.95;;
37781;SDS011;23621;50.878;4.584;2022-10-31T01:43:55;9.32;;;8.43;;
37781;SDS011;23621;50.878;4.584;2022-10-31T01:48:59;10.63;;;8.98;;
37781;SDS011;23621;50.878;4.584;2022-10-31T01:51:30;10.13;;;8.45;;
37781;SDS011;23621;50.878;4.584;2022-10-31T01:54:04;10.80;;;7.88;;
37781;SDS011;23621;50.878;4.584;2022-10-31T01:56:34;10.63;;;8.27;;
37781;SDS011;23621;50.878;4.584;2022-10-31T01:59:06;9.23;;;7.97;;
37781;SDS011;23621;50.878;4.584;2022-10-31T02:01:36;11.43;;;8.57;;
37781;SDS011;23621;50.878;4.584;2022-10-31T02:04:04;12.20;;;8.70;;
37781;SDS011;23621;50.878;4.584;2022-10-31T02:06:37;13.30;;;8.70;;
37781;SDS011;23621;50.878;4.584;2022-10-31T02:09:07;10.55;;;8.13;;
37781;SDS011;23621;50.878;4.584;2022-10-31T02:11:34;14.88;;;9.05;;
37781;SDS011;23621;50.878;4.584;2022-10-31T02:14:02;12.02;;;8.82;;
37781;SDS011;23621;50.878;4.584;2022-10-31T02:16:29;10.35;;;9.00;;
37781;SDS011;23621;50.878;4.584;2022-10-31T02:18:56;11.52;;;8.35;;
37781;SDS011;23621;50.878;4.584;2022-10-31T02:40:25;7.95;;;6.88;;
37781;SDS011;23621;50.878;4.584;2022-10-31T02:48:20;8.75;;;7.55;;
37781;SDS011;23621;50.878;4.584;2022-10-31T02:50:57;10.20;;;8.43;;
37781;SDS011;23621;50.878;4.584;2022-10-31T02:53:26;11.23;;;7.90;;
37781;SDS011;23621;50.878;4.584;2022-10-31T02:56:11;10.65;;;8.00;;
37781;SDS011;23621;50.878;4.584;2022-10-31T02:58:46;9.38;;;7.75;;
37781;SDS011;23621;50.878;4.584;2022-10-31T03:06:44;9.20;;;7.43;;
37781;SDS011;23621;50.878;4.584;2022-10-31T03:09:26;10.52;;;8.50;;
37781;SDS011;23621;50.878;4.584;2022-10-31T03:14:52;10.35;;;8.18;;
37781;SDS011;23621;50.878;4.584;2022-10-31T03:17:27;11.05;;;7.60;;
37781;SDS011;23621;50.878;4.584;2022-10-31T03:20:03;9.40;;;7.85;;
37781;SDS011;23621;50.878;4.584;2022-10-31T03:22:32;9.13;;;7.28;;
37781;SDS011;23621;50.878;4.584;2022-10-31T03:25:01;10.68;;;7.85;;
37781;SDS011;23621;50.878;4.584;2022-10-31T03:27:31;10.18;;;8.18;;
37781;SDS011;23621;50.878;4.584;2022-10-31T03:30:01;10.30;;;8.40;;
37781;SDS011;23621;50.878;4.584;2022-10-31T03:32:40;9.68;;;8.50;;
37781;SDS011;23621;50.878;4.584;2022-10-31T03:35:18;10.13;;;7.80;;
37781;SDS011;23621;50.878;4.584;2022-10-31T03:37:49;9.05;;;7.93;;
37781;SDS011;23621;50.878;4.584;2022-10-31T03:40:20;9.20;;;7.72;;
37781;SDS011;23621;50.878;4.584;2022-10-31T03:42:59;10.52;;;9.07;;
37781;SDS011;23621;50.878;4.584;2022-10-31T03:45:31;11.40;;;8.57;;
37781;SDS011;23621;50.878;4.584;2022-10-31T03:48:02;10.77;;;8.45;;
37781;SDS011;23621;50.878;4.584;2022-10-31T03:50:31;10.75;;;8.90;;
37781;SDS011;23621;50.878;4.584;2022-10-31T03:53:14;12.18;;;8.82;;
37781;SDS011;23621;50.878;4.584;2022-10-31T03:58:20;12.63;;;9.10;;
37781;SDS011;23621;50.878;4.584;2022-10-31T04:00:52;11.38;;;8.25;;
37781;SDS011;23621;50.878;4.584;2022-10-31T04:03:25;11.77;;;9.00;;
37781;SDS011;23621;50.878;4.584;2022-10-31T04:05:55;11.32;;;8.60;;
37781;SDS011;23621;50.878;4.584;2022-10-31T04:08:26;10.48;;;8.18;;
37781;SDS011;23621;50.878;4.584;2022-10-31T04:10:57;11.20;;;8.38;;
37781;SDS011;23621;50.878;4.584;2022-10-31T04:13:27;13.82;;;8.68;;
37781;SDS011;23621;50.878;4.584;2022-10-31T04:15:57;9.48;;;7.90;;
37781;SDS011;23621;50.878;4.584;2022-10-31T04:18:25;9.75;;;8.05;;
37781;SDS011;23621;50.878;4.584;2022-10-31T04:21:02;11.02;;;8.18;;
37781;SDS011;23621;50.878;4.584;2022-10-31T04:23:31;10.02;;;8.68;;
37781;SDS011;23621;50.878;4.584;2022-10-31T04:25:59;12.32;;;8.30;;
37781;SDS011;23621;50.878;4.584;2022-10-31T04:28:26;8.68;;;7.78;;
37781;SDS011;23621;50.878;4.584;2022-10-31T04:30:53;9.55;;;8.18;;
37781;SDS011;23621;50.878;4.584;2022-10-31T04:33:20;10.05;;;8.38;;
37781;SDS011;23621;50.878;4.584;2022-10-31T04:35:47;9.75;;;8.60;;
37781;SDS011;23621;50.878;4.584;2022-10-31T04:38:14;9.45;;;8.45;;
37781;SDS011;23621;50.878;4.584;2022-10-31T04:40:41;8.90;;;7.93;;
37781;SDS011;23621;50.878;4.584;2022-10-31T04:43:08;10.40;;;7.78;;
37781;SDS011;23621;50.878;4.584;2022-10-31T04:45:35;8.07;;;7.00;;
37781;SDS011;23621;50.878;4.584;2022-10-31T04:48:01;7.72;;;6.85;;
37781;SDS011;23621;50.878;4.584;2022-10-31T04:50:29;8.20;;;7.40;;
37781;SDS011;23621;50.878;4.584;2022-10-31T04:52:56;8.50;;;6.97;;
37781;SDS011;23621;50.878;4.584;2022-10-31T04:55:23;8.25;;;7.43;;
37781;SDS011;23621;50.878;4.584;2022-10-31T04:57:49;8.52;;;7.50;;
37781;SDS011;23621;50.878;4.584;2022-10-31T05:00:18;9.10;;;8.13;;
37781;SDS011;23621;50.878;4.584;2022-10-31T05:02:47;10.55;;;8.00;;
37781;SDS011;23621;50.878;4.584;2022-10-31T05:05:15;8.95;;;6.70;;
37781;SDS011;23621;50.878;4.584;2022-10-31T05:07:43;7.90;;;7.20;;
37781;SDS011;23621;50.878;4.584;2022-10-31T05:10:11;7.10;;;6.40;;
37781;SDS011;23621;50.878;4.584;2022-10-31T05:12:53;7.10;;;6.50;;
37781;SDS011;23621;50.878;4.584;2022-10-31T05:15:27;6.78;;;6.18;;
37781;SDS011;23621;50.878;4.584;2022-10-31T05:17:55;8.40;;;7.50;;
37781;SDS011;23621;50.878;4.584;2022-10-31T05:20:23;7.70;;;6.93;;
37781;SDS011;23621;50.878;4.584;2022-10-31T05:22:53;7.60;;;6.93;;
37781;SDS011;23621;50.878;4.584;2022-10-31T05:25:23;7.68;;;6.97;;
37781;SDS011;23621;50.878;4.584;2022-10-31T05:27:53;8.25;;;7.45;;
37781;SDS011;23621;50.878;4.584;2022-10-31T05:30:27;7.82;;;7.03;;
37781;SDS011;23621;50.878;4.584;2022-10-31T05:32:56;7.53;;;6.82;;
37781;SDS011;23621;50.878;4.584;2022-10-31T05:35:28;7.30;;;6.60;;
37781;SDS011;23621;50.878;4.584;2022-10-31T05:37:56;10.00;;;7.55;;
37781;SDS011;23621;50.878;4.584;2022-10-31T05:40:26;9.23;;;7.50;;
37781;SDS011;23621;50.878;4.584;2022-10-31T05:42:54;10.70;;;7.45;;
37781;SDS011;23621;50.878;4.584;2022-10-31T05:45:23;8.27;;;7.40;;
37781;SDS011;23621;50.878;4.584;2022-10-31T05:47:51;7.88;;;7.07;;
37781;SDS011;23621;50.878;4.584;2022-10-31T05:50:26;9.93;;;7.32;;
37781;SDS011;23621;50.878;4.584;2022-10-31T05:53:04;6.97;;;6.28;;
37781;SDS011;23621;50.878;4.584;2022-10-31T05:55:32;7.00;;;6.30;;
37781;SDS011;23621;50.878;4.584;2022-10-31T05:57:59;7.70;;;7.00;;
37781;SDS011;23621;50.878;4.584;2022-10-31T06:00:27;8.77;;;6.28;;
37781;SDS011;23621;50.878;4.584;2022-10-31T06:02:58;8.77;;;6.70;;
37781;SDS011;23621;50.878;4.584;2022-10-31T06:05:26;6.80;;;6.20;;
37781;SDS011;23621;50.878;4.584;2022-10-31T06:07:53;7.72;;;6.32;;
37781;SDS011;23621;50.878;4.584;2022-10-31T06:10:20;8.55;;;6.60;;
37781;SDS011;23621;50.878;4.584;2022-10-31T06:12:47;7.25;;;6.55;;
37781;SDS011;23621;50.878;4.584;2022-10-31T06:15:14;7.47;;;6.43;;
37781;SDS011;23621;50.878;4.584;2022-10-31T06:17:57;7.65;;;6.53;;
37781;SDS011;23621;50.878;4.584;2022-10-31T06:20:25;7.38;;;6.50;;
37781;SDS011;23621;50.878;4.584;2022-10-31T06:22:52;7.65;;;6.88;;
37781;SDS011;23621;50.878;4.584;2022-10-31T06:25:18;7.97;;;7.15;;
37781;SDS011;23621;50.878;4.584;2022-10-31T06:27:45;7.82;;;7.13;;
37781;SDS011;23621;50.878;4.584;2022-10-31T06:30:12;7.55;;;6.55;;
37781;SDS011;23621;50.878;4.584;2022-10-31T06:32:39;7.50;;;6.85;;
37781;SDS011;23621;50.878;4.584;2022-10-31T06:35:06;9.00;;;6.70;;
37781;SDS011;23621;50.878;4.584;2022-10-31T06:37:33;7.45;;;6.70;;
37781;SDS011;23621;50.878;4.584;2022-10-31T06:40:00;8.77;;;6.85;;
37781;SDS011;23621;50.878;4.584;2022-10-31T06:42:27;9.05;;;7.18;;
37781;SDS011;23621;50.878;4.584;2022-10-31T06:44:53;6.85;;;6.28;;
37781;SDS011;23621;50.878;4.584;2022-10-31T06:47:20;7.75;;;6.43;;
37781;SDS011;23621;50.878;4.584;2022-10-31T06:49:47;8.63;;;7.20;;
37781;SDS011;23621;50.878;4.584;2022-10-31T06:52:14;8.40;;;7.57;;
37781;SDS011;23621;50.878;4.584;2022-10-31T06:54:41;8.00;;;7.20;;
37781;SDS011;23621;50.878;4.584;2022-10-31T06:57:08;8.52;;;7.50;;
37781;SDS011;23621;50.878;4.584;2022-10-31T06:59:35;11.30;;;7.28;;
37781;SDS011;23621;50.878;4.584;2022-10-31T07:02:01;8.68;;;7.78;;
37781;SDS011;23621;50.878;4.584;2022-10-31T07:04:29;9.27;;;7.20;;
37781;SDS011;23621;50.878;4.584;2022-10-31T07:06:55;8.57;;;7.22;;
37781;SDS011;23621;50.878;4.584;2022-10-31T07:09:22;8.90;;;7.70;;
37781;SDS011;23621;50.878;4.584;2022-10-31T07:11:51;12.30;;;7.82;;
37781;SDS011;23621;50.878;4.584;2022-10-31T07:14:18;10.02;;;7.72;;
37781;SDS011;23621;50.878;4.584;2022-10-31T07:16:49;9.23;;;7.18;;
37781;SDS011;23621;50.878;4.584;2022-10-31T07:19:17;8.98;;;8.07;;
37781;SDS011;23621;50.878;4.584;2022-10-31T07:21:44;8.60;;;7.47;;
37781;SDS011;23621;50.878;4.584;2022-10-31T07:24:11;9.35;;;7.68;;
37781;SDS011;23621;50.878;4.584;2022-10-31T07:26:37;8.60;;;7.50;;
37781;SDS011;23621;50.878;4.584;2022-10-31T07:29:04;10.30;;;7.65;;
37781;SDS011;23621;50.878;4.584;2022-10-31T07:31:31;9.65;;;8.32;;
37781;SDS011;23621;50.878;4.584;2022-10-31T07:33:58;8.65;;;7.75;;
37781;SDS011;23621;50.878;4.584;2022-10-31T07:36:25;8.43;;;7.55;;
37781;SDS011;23621;50.878;4.584;2022-10-31T07:38:51;10.10;;;7.80;;
37781;SDS011;23621;50.878;4.584;2022-10-31T07:41:18;10.55;;;7.97;;
37781;SDS011;23621;50.878;4.584;2022-10-31T07:43:45;11.43;;;8.10;;
37781;SDS011;23621;50.878;4.584;2022-10-31T07:46:12;11.60;;;7.57;;
37781;SDS011;23621;50.878;4.584;2022-10-31T07:48:39;8.57;;;7.60;;
37781;SDS011;23621;50.878;4.584;2022-10-31T07:51:05;11.98;;;8.40;;
37781;SDS011;23621;50.878;4.584;2022-10-31T07:53:33;11.60;;;8.15;;
37781;SDS011;23621;50.878;4.584;2022-10-31T07:55:59;10.18;;;8.30;;
37781;SDS011;23621;50.878;4.584;2022-10-31T07:58:26;8.75;;;7.85;;
37781;SDS011;23621;50.878;4.584;2022-10-31T08:00:53;10.25;;;7.85;;
37781;SDS011;23621;50.878;4.584;2022-10-31T08:03:20;12.15;;;8.57;;
37781;SDS011;23621;50.878;4.584;2022-10-31T08:05:47;12.95;;;8.52;;
37781;SDS011;23621;50.878;4.584;2022-10-31T08:08:14;9.07;;;7.93;;
37781;SDS011;23621;50.878;4.584;2022-10-31T08:10:41;10.05;;;8.02;;
37781;SDS011;23621;50.878;4.584;2022-10-31T08:13:09;9.45;;;7.82;;
37781;SDS011;23621;50.878;4.584;2022-10-31T08:15:38;12.75;;;8.82;;
37781;SDS011;23621;50.878;4.584;2022-10-31T08:18:14;12.95;;;8.48;;
37781;SDS011;23621;50.878;4.584;2022-10-31T08:20:42;11.52;;;8.35;;
37781;SDS011;23621;50.878;4.584;2022-10-31T08:23:10;10.68;;;7.55;;
37781;SDS011;23621;50.878;4.584;2022-10-31T08:25:38;10.75;;;8.00;;
37781;SDS011;23621;50.878;4.584;2022-10-31T08:28:06;8.93;;;8.02;;
37781;SDS011;23621;50.878;4.584;2022-10-31T08:30:34;10.43;;;8.27;;
37781;SDS011;23621;50.878;4.584;2022-10-31T08:35:32;10.77;;;8.15;;
37781;SDS011;23621;50.878;4.584;2022-10-31T08:37:59;10.25;;;8.50;;
37781;SDS011;23621;50.878;4.584;2022-10-31T08:40:28;11.70;;;7.82;;
37781;SDS011;23621;50.878;4.584;2022-10-31T08:43:00;8.82;;;7.63;;
37781;SDS011;23621;50.878;4.584;2022-10-31T08:45:29;9.35;;;8.35;;
37781;SDS011;23621;50.878;4.584;2022-10-31T08:47:58;9.30;;;7.85;;
37781;SDS011;23621;50.878;4.584;2022-10-31T08:50:31;10.30;;;7.90;;
37781;SDS011;23621;50.878;4.584;2022-10-31T08:53:18;10.43;;;7.95;;
37781;SDS011;23621;50.878;4.584;2022-10-31T08:55:53;13.35;;;8.57;;
37781;SDS011;23621;50.878;4.584;2022-10-31T08:58:22;9.02;;;8.13;;
37781;SDS011;23621;50.878;4.584;2022-10-31T09:00:51;11.50;;;7.97;;
37781;SDS011;23621;50.878;4.584;2022-10-31T09:03:20;10.57;;;7.97;;
37781;SDS011;23621;50.878;4.584;2022-10-31T09:05:54;8.70;;;7.72;;
37781;SDS011;23621;50.878;4.584;2022-10-31T09:08:22;10.95;;;7.90;;
37781;SDS011;23621;50.878;4.584;2022-10-31T09:10:50;11.35;;;8.15;;
37781;SDS011;23621;50.878;4.584;2022-10-31T09:13:19;11.25;;;8.05;;
37781;SDS011;23621;50.878;4.584;2022-10-31T09:15:47;10.75;;;8.18;;
37781;SDS011;23621;50.878;4.584;2022-10-31T09:18:16;10.75;;;8.80;;
37781;SDS011;23621;50.878;4.584;2022-10-31T09:20:45;13.95;;;9.55;;
37781;SDS011;23621;50.878;4.584;2022-10-31T09:23:20;11.80;;;9.02;;
37781;SDS011;23621;50.878;4.584;2022-10-31T09:25:49;13.48;;;9.77;;
37781;SDS011;23621;50.878;4.584;2022-10-31T09:28:21;11.40;;;9.40;;
37781;SDS011;23621;50.878;4.584;2022-10-31T09:30:50;12.57;;;9.80;;
37781;SDS011;23621;50.878;4.584;2022-10-31T09:33:19;12.88;;;10.15;;
37781;SDS011;23621;50.878;4.584;2022-10-31T09:35:46;10.85;;;9.20;;
37781;SDS011;23621;50.878;4.584;2022-10-31T09:38:17;13.13;;;10.18;;
37781;SDS011;23621;50.878;4.584;2022-10-31T09:40:46;13.95;;;9.98;;
37781;SDS011;23621;50.878;4.584;2022-10-31T09:46:57;13.45;;;10.25;;
37781;SDS011;23621;50.878;4.584;2022-10-31T09:50:31;14.63;;;9.38;;
37781;SDS011;23621;50.878;4.584;2022-10-31T09:55:44;13.65;;;9.98;;
37781;SDS011;23621;50.878;4.584;2022-10-31T09:58:18;11.82;;;10.25;;
37781;SDS011;23621;50.878;4.584;2022-10-31T10:00:49;13.70;;;9.82;;
37781;SDS011;23621;50.878;4.584;2022-10-31T10:03:30;12.77;;;9.73;;
37781;SDS011;23621;50.878;4.584;2022-10-31T10:06:06;11.18;;;9.55;;
37781;SDS011;23621;50.878;4.584;2022-10-31T10:08:40;17.50;;;9.43;;
37781;SDS011;23621;50.878;4.584;2022-10-31T10:22:29;13.40;;;10.70;;
37781;SDS011;23621;50.878;4.584;2022-10-31T10:27:49;16.70;;;11.13;;
37781;SDS011;23621;50.878;4.584;2022-10-31T10:33:36;15.30;;;10.80;;
37781;SDS011;23621;50.878;4.584;2022-10-31T10:36:08;13.40;;;9.93;;
37781;SDS011;23621;50.878;4.584;2022-10-31T10:41:34;12.88;;;9.82;;
37781;SDS011;23621;50.878;4.584;2022-10-31T10:44:02;15.73;;;9.60;;
37781;SDS011;23621;50.878;4.584;2022-10-31T10:49:45;13.15;;;9.95;;
37781;SDS011;23621;50.878;4.584;2022-10-31T11:00:29;13.68;;;9.38;;
37781;SDS011;23621;50.878;4.584;2022-10-31T11:03:07;12.32;;;10.18;;
37781;SDS011;23621;50.878;4.584;2022-10-31T11:05:37;14.25;;;10.32;;
37781;SDS011;23621;50.878;4.584;2022-10-31T11:08:08;11.75;;;10.00;;
37781;SDS011;23621;50.878;4.584;2022-10-31T11:10:35;12.85;;;9.88;;
37781;SDS011;23621;50.878;4.584;2022-10-31T11:13:21;14.77;;;9.45;;
37781;SDS011;23621;50.878;4.584;2022-10-31T11:15:57;14.23;;;9.25;;
37781;SDS011;23621;50.878;4.584;2022-10-31T11:18:40;15.27;;;10.13;;
37781;SDS011;23621;50.878;4.584;2022-10-31T11:26:37;12.75;;;10.32;;
37781;SDS011;23621;50.878;4.584;2022-10-31T11:29:09;15.85;;;10.30;;
37781;SDS011;23621;50.878;4.584;2022-10-31T11:31:41;13.07;;;9.55;;
37781;SDS011;23621;50.878;4.584;2022-10-31T11:34:15;11.55;;;9.80;;
37781;SDS011;23621;50.878;4.584;2022-10-31T11:37:10;14.60;;;9.98;;
37781;SDS011;23621;50.878;4.584;2022-10-31T11:39:41;14.40;;;10.00;;
37781;SDS011;23621;50.878;4.584;2022-10-31T11:42:11;12.90;;;9.90;;
37781;SDS011;23621;50.878;4.584;2022-10-31T11:44:40;16.77;;;9.52;;
37781;SDS011;23621;50.878;4.584;2022-10-31T11:47:11;10.73;;;9.07;;
37781;SDS011;23621;50.878;4.584;2022-10-31T11:49:41;13.32;;;9.77;;
37781;SDS011;23621;50.878;4.584;2022-10-31T11:52:15;11.27;;;8.63;;
37781;SDS011;23621;50.878;4.584;2022-10-31T11:57:43;11.77;;;8.88;;
37781;SDS011;23621;50.878;4.584;2022-10-31T12:00:22;11.35;;;8.35;;
37781;SDS011;23621;50.878;4.584;2022-10-31T12:05:49;10.88;;;8.20;;
37781;SDS011;23621;50.878;4.584;2022-10-31T12:08:23;15.13;;;8.90;;
37781;SDS011;23621;50.878;4.584;2022-10-31T12:17:03;12.52;;;7.90;;
37781;SDS011;23621;50.878;4.584;2022-10-31T12:25:07;13.55;;;8.20;;
37781;SDS011;23621;50.878;4.584;2022-10-31T12:33:34;12.10;;;8.15;;
37781;SDS011;23621;50.878;4.584;2022-10-31T12:53:23;10.32;;;7.72;;
37781;SDS011;23621;50.878;4.584;2022-10-31T13:00:57;10.55;;;7.47;;
37781;SDS011;23621;50.878;4.584;2022-10-31T13:03:38;11.38;;;7.00;;
37781;SDS011;23621;50.878;4.584;2022-10-31T13:06:13;15.23;;;8.27;;
37781;SDS011;23621;50.878;4.584;2022-10-31T13:08:50;9.48;;;6.40;;
37781;SDS011;23621;50.878;4.584;2022-10-31T13:11:24;9.60;;;5.82;;
37781;SDS011;23621;50.878;4.584;2022-10-31T13:16:39;10.52;;;5.97;;
37781;SDS011;23621;50.878;4.584;2022-10-31T13:19:17;6.93;;;5.80;;
37781;SDS011;23621;50.878;4.584;2022-10-31T13:21:51;9.38;;;5.75;;
37781;SDS011;23621;50.878;4.584;2022-10-31T13:24:31;6.07;;;5.45;;
37781;SDS011;23621;50.878;4.584;2022-10-31T13:27:01;6.82;;;5.05;;
37781;SDS011;23621;50.878;4.584;2022-10-31T13:29:37;8.15;;;5.60;;
37781;SDS011;23621;50.878;4.584;2022-10-31T13:32:09;7.45;;;5.05;;
37781;SDS011;23621;50.878;4.584;2022-10-31T13:34:41;8.40;;;4.53;;
37781;SDS011;23621;50.878;4.584;2022-10-31T13:37:15;8.57;;;4.47;;
37781;SDS011;23621;50.878;4.584;2022-10-31T13:43:15;6.32;;;4.88;;
37781;SDS011;23621;50.878;4.584;2022-10-31T13:45:57;6.68;;;4.70;;
37781;SDS011;23621;50.878;4.584;2022-10-31T13:50:55;9.25;;;5.10;;
37781;SDS011;23621;50.878;4.584;2022-10-31T13:56:14;6.10;;;4.50;;
37781;SDS011;23621;50.878;4.584;2022-10-31T14:01:35;6.03;;;4.90;;
37781;SDS011;23621;50.878;4.584;2022-10-31T14:04:15;7.50;;;4.95;;
37781;SDS011;23621;50.878;4.584;2022-10-31T14:06:52;9.20;;;4.95;;
37781;SDS011;23621;50.878;4.584;2022-10-31T14:09:34;11.07;;;5.53;;
37781;SDS011;23621;50.878;4.584;2022-10-31T14:12:07;7.15;;;5.43;;
37781;SDS011;23621;50.878;4.584;2022-10-31T14:14:51;7.85;;;5.13;;
37781;SDS011;23621;50.878;4.584;2022-10-31T14:17:26;8.10;;;6.25;;
37781;SDS011;23621;50.878;4.584;2022-10-31T14:20:20;7.80;;;5.95;;
37781;SDS011;23621;50.878;4.584;2022-10-31T14:22:50;10.10;;;5.25;;
37781;SDS011;23621;50.878;4.584;2022-10-31T14:28:00;9.80;;;5.90;;
37781;SDS011;23621;50.878;4.584;2022-10-31T14:30:30;8.70;;;5.90;;
37781;SDS011;23621;50.878;4.584;2022-10-31T14:32:58;9.18;;;5.47;;
37781;SDS011;23621;50.878;4.584;2022-10-31T14:35:51;7.07;;;5.35;;
37781;SDS011;23621;50.878;4.584;2022-10-31T14:47:04;10.32;;;6.57;;
37781;SDS011;23621;50.878;4.584;2022-10-31T14:52:49;12.70;;;6.35;;
37781;SDS011;23621;50.878;4.584;2022-10-31T14:55:18;10.60;;;6.40;;
37781;SDS011;23621;50.878;4.584;2022-10-31T14:57:57;9.23;;;6.78;;
37781;SDS011;23621;50.878;4.584;2022-10-31T15:00:30;7.68;;;6.72;;
37781;SDS011;23621;50.878;4.584;2022-10-31T15:03:44;9.48;;;6.80;;
37781;SDS011;23621;50.878;4.584;2022-10-31T15:05:52;10.15;;;5.65;;
37781;SDS011;23621;50.878;4.584;2022-10-31T15:08:29;10.65;;;6.45;;
37781;SDS011;23621;50.878;4.584;2022-10-31T15:11:09;10.07;;;6.30;;
37781;SDS011;23621;50.878;4.584;2022-10-31T15:13:45;12.27;;;7.90;;
37781;SDS011;23621;50.878;4.584;2022-10-31T15:16:24;11.80;;;8.35;;
37781;SDS011;23621;50.878;4.584;2022-10-31T15:18:56;10.98;;;7.93;;
37781;SDS011;23621;50.878;4.584;2022-10-31T15:21:26;13.70;;;8.55;;
37781;SDS011;23621;50.878;4.584;2022-10-31T15:23:58;11.88;;;7.72;;
37781;SDS011;23621;50.878;4.584;2022-10-31T15:26:31;11.23;;;8.50;;
37781;SDS011;23621;50.878;4.584;2022-10-31T15:29:02;11.73;;;8.10;;
37781;SDS011;23621;50.878;4.584;2022-10-31T15:31:53;11.20;;;8.80;;
37781;SDS011;23621;50.878;4.584;2022-10-31T15:34:30;10.07;;;8.27;;
37781;SDS011;23621;50.878;4.584;2022-10-31T15:37:04;12.50;;;7.88;;
37781;SDS011;23621;50.878;4.584;2022-10-31T15:39:36;13.73;;;8.55;;
37781;SDS011;23621;50.878;4.584;2022-10-31T15:42:03;12.75;;;8.75;;
37781;SDS011;23621;50.878;4.584;2022-10-31T15:44:31;11.45;;;8.25;;
37781;SDS011;23621;50.878;4.584;2022-10-31T15:47:06;10.63;;;8.38;;
37781;SDS011;23621;50.878;4.584;2022-10-31T15:49:52;13.50;;;8.63;;
37781;SDS011;23621;50.878;4.584;2022-10-31T15:52:26;12.65;;;8.45;;
37781;SDS011;23621;50.878;4.584;2022-10-31T15:57:46;12.85;;;8.10;;
37781;SDS011;23621;50.878;4.584;2022-10-31T16:00:24;13.60;;;9.70;;
37781;SDS011;23621;50.878;4.584;2022-10-31T16:05:39;11.80;;;9.13;;
37781;SDS011;23621;50.878;4.584;2022-10-31T16:10:58;13.35;;;8.95;;
37781;SDS011;23621;50.878;4.584;2022-10-31T16:13:53;15.07;;;9.40;;
37781;SDS011;23621;50.878;4.584;2022-10-31T16:16:23;11.32;;;8.68;;
37781;SDS011;23621;50.878;4.584;2022-10-31T16:19:11;13.27;;;8.60;;
37781;SDS011;23621;50.878;4.584;2022-10-31T16:21:47;15.23;;;9.02;;
37781;SDS011;23621;50.878;4.584;2022-10-31T16:24:21;15.70;;;9.55;;
37781;SDS011;23621;50.878;4.584;2022-10-31T16:26:57;15.20;;;9.35;;
37781;SDS011;23621;50.878;4.584;2022-10-31T16:29:42;12.38;;;8.60;;
37781;SDS011;23621;50.878;4.584;2022-10-31T16:37:40;13.00;;;8.32;;
37781;SDS011;23621;50.878;4.584;2022-10-31T16:40:11;15.18;;;10.50;;
37781;SDS011;23621;50.878;4.584;2022-10-31T16:42:40;18.90;;;13.07;;
37781;SDS011;23621;50.878;4.584;2022-10-31T16:45:08;18.75;;;13.30;;
37781;SDS011;23621;50.878;4.584;2022-10-31T16:47:44;15.05;;;11.20;;
37781;SDS011;23621;50.878;4.584;2022-10-31T16:50:29;12.38;;;8.65;;
37781;SDS011;23621;50.878;4.584;2022-10-31T16:52:57;11.57;;;8.50;;
37781;SDS011;23621;50.878;4.584;2022-10-31T16:55:47;14.32;;;8.80;;
37781;SDS011;23621;50.878;4.584;2022-10-31T16:58:23;10.82;;;8.48;;
37781;SDS011;23621;50.878;4.584;2022-10-31T17:00:56;10.07;;;6.70;;
37781;SDS011;23621;50.878;4.584;2022-10-31T17:03:23;11.77;;;7.07;;
37781;SDS011;23621;50.878;4.584;2022-10-31T17:05:50;8.38;;;6.25;;
37781;SDS011;23621;50.878;4.584;2022-10-31T17:08:17;12.55;;;6.53;;
37781;SDS011;23621;50.878;4.584;2022-10-31T17:10:44;8.32;;;5.63;;
37781;SDS011;23621;50.878;4.584;2022-10-31T17:13:19;11.18;;;6.30;;
37781;SDS011;23621;50.878;4.584;2022-10-31T17:15:52;7.47;;;5.63;;
37781;SDS011;23621;50.878;4.584;2022-10-31T17:18:23;7.30;;;5.35;;
37781;SDS011;23621;50.878;4.584;2022-10-31T17:20:57;9.70;;;5.70;;
37781;SDS011;23621;50.878;4.584;2022-10-31T17:23:25;9.20;;;5.70;;
37781;SDS011;23621;50.878;4.584;2022-10-31T17:25:53;6.63;;;5.13;;
37781;SDS011;23621;50.878;4.584;2022-10-31T17:28:21;6.90;;;4.95;;
37781;SDS011;23621;50.878;4.584;2022-10-31T17:30:48;8.93;;;5.70;;
37781;SDS011;23621;50.878;4.584;2022-10-31T17:33:15;9.48;;;5.47;;
37781;SDS011;23621;50.878;4.584;2022-10-31T17:35:42;6.43;;;5.22;;
37781;SDS011;23621;50.878;4.584;2022-10-31T17:38:15;6.80;;;4.80;;
37781;SDS011;23621;50.878;4.584;2022-10-31T17:40:42;10.10;;;5.38;;
37781;SDS011;23621;50.878;4.584;2022-10-31T17:43:09;8.23;;;5.38;;
37781;SDS011;23621;50.878;4.584;2022-10-31T17:45:37;7.00;;;5.07;;
37781;SDS011;23621;50.878;4.584;2022-10-31T17:48:06;8.48;;;5.60;;
37781;SDS011;23621;50.878;4.584;2022-10-31T17:50:35;9.20;;;5.50;;
37781;SDS011;23621;50.878;4.584;2022-10-31T17:53:02;8.10;;;4.88;;